sensor_id;sensor_type;location;lat;lon;timestamp;P1;durP1;ratioP1;P2;durP2;ratioP2
12687;SDS011;6408;59.388;17.798;2023-04-03T00:00:29;2.03;;;1.10;;
12687;SDS011;6408;59.388;17.798;2023-04-03T00:06:09;2.67;;;0.90;;
12687;SDS011;6408;59.388;17.798;2023-04-03T00:11:41;2.00;;;1.00;;
12687;SDS011;6408;59.388;17.798;2023-04-03T00:14:28;3.00;;;0.93;;
12687;SDS011;6408;59.388;17.798;2023-04-03T00:16:56;4.27;;;1.10;;
12687;SDS011;6408;59.388;17.798;2023-04-03T00:19:56;5.10;;;1.50;;
12687;SDS011;6408;59.388;17.798;2023-04-03T00:26:15;4.83;;;1.40;;
12687;SDS011;6408;59.388;17.798;2023-04-03T00:32:11;2.57;;;1.10;;
12687;SDS011;6408;59.388;17.798;2023-04-03T00:35:04;3.83;;;1.10;;
12687;SDS011;6408;59.388;17.798;2023-04-03T02:14:52;3.30;;;1.10;;
12687;SDS011;6408;59.388;17.798;2023-04-03T02:18:14;5.40;;;1.93;;
12687;SDS011;6408;59.388;17.798;2023-04-03T02:21:29;5.60;;;1.10;;
12687;SDS011;6408;59.388;17.798;2023-04-03T02:31:10;2.00;;;1.07;;
12687;SDS011;6408;59.388;17.798;2023-04-03T04:16:14;6.10;;;1.30;;
12687;SDS011;6408;59.388;17.798;2023-04-03T04:18:41;4.27;;;1.10;;
12687;SDS011;6408;59.388;17.798;2023-04-03T04:21:09;3.13;;;1.43;;
12687;SDS011;6408;59.388;17.798;2023-04-03T04:23:37;3.53;;;1.00;;
12687;SDS011;6408;59.388;17.798;2023-04-03T04:26:05;1.77;;;1.00;;
12687;SDS011;6408;59.388;17.798;2023-04-03T04:28:32;3.27;;;1.43;;
12687;SDS011;6408;59.388;17.798;2023-04-03T04:31:00;5.93;;;1.20;;
12687;SDS011;6408;59.388;17.798;2023-04-03T04:33:30;5.00;;;1.27;;
12687;SDS011;6408;59.388;17.798;2023-04-03T04:35:58;2.37;;;0.93;;
12687;SDS011;6408;59.388;17.798;2023-04-03T04:38:25;5.43;;;1.00;;
12687;SDS011;6408;59.388;17.798;2023-04-03T04:40:53;4.13;;;1.23;;
12687;SDS011;6408;59.388;17.798;2023-04-03T04:43:21;6.77;;;1.23;;
12687;SDS011;6408;59.388;17.798;2023-04-03T04:45:49;6.07;;;1.30;;
12687;SDS011;6408;59.388;17.798;2023-04-03T04:48:27;3.53;;;1.10;;
12687;SDS011;6408;59.388;17.798;2023-04-03T04:50:57;4.10;;;1.30;;
12687;SDS011;6408;59.388;17.798;2023-04-03T04:53:25;4.73;;;1.40;;
12687;SDS011;6408;59.388;17.798;2023-04-03T04:55:52;2.60;;;1.00;;
12687;SDS011;6408;59.388;17.798;2023-04-03T04:58:20;6.77;;;1.20;;
12687;SDS011;6408;59.388;17.798;2023-04-03T05:00:48;1.73;;;0.97;;
12687;SDS011;6408;59.388;17.798;2023-04-03T05:03:16;3.03;;;1.93;;
12687;SDS011;6408;59.388;17.798;2023-04-03T05:05:46;2.73;;;1.10;;
12687;SDS011;6408;59.388;17.798;2023-04-03T05:08:13;5.60;;;1.40;;
12687;SDS011;6408;59.388;17.798;2023-04-03T05:10:41;4.03;;;1.10;;
12687;SDS011;6408;59.388;17.798;2023-04-03T05:13:09;3.83;;;1.63;;
12687;SDS011;6408;59.388;17.798;2023-04-03T05:15:37;3.07;;;1.20;;
12687;SDS011;6408;59.388;17.798;2023-04-03T05:18:05;2.50;;;0.90;;
12687;SDS011;6408;59.388;17.798;2023-04-03T05:20:32;4.90;;;1.50;;
12687;SDS011;6408;59.388;17.798;2023-04-03T05:23:04;3.03;;;1.27;;
12687;SDS011;6408;59.388;17.798;2023-04-03T05:25:32;1.90;;;1.30;;
12687;SDS011;6408;59.388;17.798;2023-04-03T05:27:59;3.73;;;1.33;;
12687;SDS011;6408;59.388;17.798;2023-04-03T05:30:27;3.37;;;1.27;;
12687;SDS011;6408;59.388;17.798;2023-04-03T05:32:54;3.63;;;1.00;;
12687;SDS011;6408;59.388;17.798;2023-04-03T05:35:22;3.00;;;1.40;;
12687;SDS011;6408;59.388;17.798;2023-04-03T05:37:50;3.97;;;1.07;;
12687;SDS011;6408;59.388;17.798;2023-04-03T05:40:20;6.03;;;1.27;;
12687;SDS011;6408;59.388;17.798;2023-04-03T05:42:47;3.43;;;1.80;;
12687;SDS011;6408;59.388;17.798;2023-04-03T05:45:15;3.87;;;1.10;;
12687;SDS011;6408;59.388;17.798;2023-04-03T05:47:43;3.47;;;1.23;;
12687;SDS011;6408;59.388;17.798;2023-04-03T05:50:11;5.50;;;1.20;;
12687;SDS011;6408;59.388;17.798;2023-04-03T05:52:40;3.13;;;1.20;;
12687;SDS011;6408;59.388;17.798;2023-04-03T05:55:11;3.67;;;1.50;;
12687;SDS011;6408;59.388;17.798;2023-04-03T05:57:40;3.30;;;1.20;;
12687;SDS011;6408;59.388;17.798;2023-04-03T06:00:08;4.70;;;1.30;;
12687;SDS011;6408;59.388;17.798;2023-04-03T06:02:40;2.63;;;1.47;;
12687;SDS011;6408;59.388;17.798;2023-04-03T06:05:09;3.03;;;1.10;;
12687;SDS011;6408;59.388;17.798;2023-04-03T06:07:38;4.97;;;1.20;;
12687;SDS011;6408;59.388;17.798;2023-04-03T06:10:06;2.93;;;1.30;;
12687;SDS011;6408;59.388;17.798;2023-04-03T06:12:35;2.63;;;1.37;;
12687;SDS011;6408;59.388;17.798;2023-04-03T06:15:06;1.93;;;1.10;;
12687;SDS011;6408;59.388;17.798;2023-04-03T06:17:35;4.70;;;1.73;;
12687;SDS011;6408;59.388;17.798;2023-04-03T06:20:03;4.43;;;1.23;;
12687;SDS011;6408;59.388;17.798;2023-04-03T06:22:31;2.93;;;1.17;;
12687;SDS011;6408;59.388;17.798;2023-04-03T06:24:59;2.33;;;1.60;;
12687;SDS011;6408;59.388;17.798;2023-04-03T06:27:27;4.95;;;1.40;;
12687;SDS011;6408;59.388;17.798;2023-04-03T06:29:55;4.13;;;1.60;;
12687;SDS011;6408;59.388;17.798;2023-04-03T06:32:25;7.95;;;1.60;;
12687;SDS011;6408;59.388;17.798;2023-04-03T06:34:53;5.85;;;1.92;;
12687;SDS011;6408;59.388;17.798;2023-04-03T06:37:22;2.40;;;1.10;;
12687;SDS011;6408;59.388;17.798;2023-04-03T06:39:51;4.28;;;1.40;;
12687;SDS011;6408;59.388;17.798;2023-04-03T06:42:18;2.90;;;1.45;;
12687;SDS011;6408;59.388;17.798;2023-04-03T06:44:46;2.38;;;1.20;;
12687;SDS011;6408;59.388;17.798;2023-04-03T06:47:15;4.70;;;1.67;;
12687;SDS011;6408;59.388;17.798;2023-04-03T06:49:46;2.58;;;1.30;;
12687;SDS011;6408;59.388;17.798;2023-04-03T06:52:14;2.10;;;1.20;;
12687;SDS011;6408;59.388;17.798;2023-04-03T06:54:42;5.05;;;1.67;;
12687;SDS011;6408;59.388;17.798;2023-04-03T06:57:10;4.30;;;1.38;;
12687;SDS011;6408;59.388;17.798;2023-04-03T06:59:38;5.25;;;1.30;;
12687;SDS011;6408;59.388;17.798;2023-04-03T07:02:05;4.32;;;1.33;;
12687;SDS011;6408;59.388;17.798;2023-04-03T07:04:33;4.85;;;1.30;;
12687;SDS011;6408;59.388;17.798;2023-04-03T07:07:03;2.80;;;1.52;;
12687;SDS011;6408;59.388;17.798;2023-04-03T07:09:31;1.73;;;0.93;;
12687;SDS011;6408;59.388;17.798;2023-04-03T07:11:58;5.38;;;2.05;;
12687;SDS011;6408;59.388;17.798;2023-04-03T07:14:26;4.22;;;1.40;;
12687;SDS011;6408;59.388;17.798;2023-04-03T07:16:54;4.07;;;1.52;;
12687;SDS011;6408;59.388;17.798;2023-04-03T07:19:22;3.97;;;1.42;;
12687;SDS011;6408;59.388;17.798;2023-04-03T07:21:53;4.47;;;1.45;;
12687;SDS011;6408;59.388;17.798;2023-04-03T07:24:23;3.78;;;1.45;;
12687;SDS011;6408;59.388;17.798;2023-04-03T07:26:51;4.85;;;1.83;;
12687;SDS011;6408;59.388;17.798;2023-04-03T07:29:19;7.30;;;1.95;;
12687;SDS011;6408;59.388;17.798;2023-04-03T07:31:48;4.20;;;1.50;;
12687;SDS011;6408;59.388;17.798;2023-04-03T07:34:16;4.78;;;1.40;;
12687;SDS011;6408;59.388;17.798;2023-04-03T07:36:44;4.85;;;1.58;;
12687;SDS011;6408;59.388;17.798;2023-04-03T07:39:12;4.40;;;1.50;;
12687;SDS011;6408;59.388;17.798;2023-04-03T07:41:42;3.00;;;1.83;;
12687;SDS011;6408;59.388;17.798;2023-04-03T07:44:10;3.50;;;1.42;;
12687;SDS011;6408;59.388;17.798;2023-04-03T07:46:38;4.10;;;1.63;;
12687;SDS011;6408;59.388;17.798;2023-04-03T07:49:07;4.00;;;1.75;;
12687;SDS011;6408;59.388;17.798;2023-04-03T07:51:35;2.42;;;1.38;;
12687;SDS011;6408;59.388;17.798;2023-04-03T07:54:02;4.65;;;2.00;;
12687;SDS011;6408;59.388;17.798;2023-04-03T07:56:30;3.15;;;1.58;;
12687;SDS011;6408;59.388;17.798;2023-04-03T07:59:00;3.90;;;1.33;;
12687;SDS011;6408;59.388;17.798;2023-04-03T08:01:28;3.55;;;1.20;;
12687;SDS011;6408;59.388;17.798;2023-04-03T08:03:57;3.53;;;1.30;;
12687;SDS011;6408;59.388;17.798;2023-04-03T08:06:26;2.78;;;1.48;;
12687;SDS011;6408;59.388;17.798;2023-04-03T08:08:54;5.45;;;1.83;;
12687;SDS011;6408;59.388;17.798;2023-04-03T08:11:22;6.32;;;1.75;;
12687;SDS011;6408;59.388;17.798;2023-04-03T08:13:51;4.85;;;1.67;;
12687;SDS011;6408;59.388;17.798;2023-04-03T08:16:22;6.25;;;1.67;;
12687;SDS011;6408;59.388;17.798;2023-04-03T08:18:52;4.32;;;1.45;;
12687;SDS011;6408;59.388;17.798;2023-04-03T08:21:20;4.53;;;1.40;;
12687;SDS011;6408;59.388;17.798;2023-04-03T08:23:48;5.13;;;1.52;;
12687;SDS011;6408;59.388;17.798;2023-04-03T08:26:17;6.15;;;1.50;;
12687;SDS011;6408;59.388;17.798;2023-04-03T08:28:46;2.70;;;1.00;;
12687;SDS011;6408;59.388;17.798;2023-04-03T08:31:16;5.03;;;1.42;;
12687;SDS011;6408;59.388;17.798;2023-04-03T08:33:47;4.47;;;1.60;;
12687;SDS011;6408;59.388;17.798;2023-04-03T08:36:18;2.95;;;1.38;;
12687;SDS011;6408;59.388;17.798;2023-04-03T08:38:47;4.53;;;1.15;;
12687;SDS011;6408;59.388;17.798;2023-04-03T08:41:17;3.83;;;1.42;;
12687;SDS011;6408;59.388;17.798;2023-04-03T08:44:03;2.20;;;1.10;;
12687;SDS011;6408;59.388;17.798;2023-04-03T08:46:45;2.30;;;1.20;;
12687;SDS011;6408;59.388;17.798;2023-04-03T08:49:24;2.63;;;1.20;;
12687;SDS011;6408;59.388;17.798;2023-04-03T08:51:54;4.32;;;1.27;;
12687;SDS011;6408;59.388;17.798;2023-04-03T08:54:26;4.13;;;1.10;;
12687;SDS011;6408;59.388;17.798;2023-04-03T08:56:56;3.88;;;1.30;;
12687;SDS011;6408;59.388;17.798;2023-04-03T08:59:28;2.23;;;1.20;;
12687;SDS011;6408;59.388;17.798;2023-04-03T09:02:00;2.53;;;1.10;;
12687;SDS011;6408;59.388;17.798;2023-04-03T09:04:33;3.43;;;1.50;;
12687;SDS011;6408;59.388;17.798;2023-04-03T09:07:03;2.10;;;1.00;;
12687;SDS011;6408;59.388;17.798;2023-04-03T09:09:37;2.93;;;1.17;;
12687;SDS011;6408;59.388;17.798;2023-04-03T09:12:11;3.93;;;1.20;;
12687;SDS011;6408;59.388;17.798;2023-04-03T09:14:46;4.07;;;1.47;;
12687;SDS011;6408;59.388;17.798;2023-04-03T09:17:21;3.47;;;0.93;;
12687;SDS011;6408;59.388;17.798;2023-04-03T09:20:06;3.73;;;1.27;;
12687;SDS011;6408;59.388;17.798;2023-04-03T09:22:43;3.47;;;1.03;;
12687;SDS011;6408;59.388;17.798;2023-04-03T09:25:12;4.50;;;1.03;;
12687;SDS011;6408;59.388;17.798;2023-04-03T09:27:41;4.93;;;1.37;;
12687;SDS011;6408;59.388;17.798;2023-04-03T09:30:12;2.10;;;1.10;;
12687;SDS011;6408;59.388;17.798;2023-04-03T09:32:44;5.33;;;1.20;;
12687;SDS011;6408;59.388;17.798;2023-04-03T09:35:19;3.53;;;1.20;;
12687;SDS011;6408;59.388;17.798;2023-04-03T09:37:50;2.93;;;1.23;;
12687;SDS011;6408;59.388;17.798;2023-04-03T09:40:29;3.57;;;1.30;;
12687;SDS011;6408;59.388;17.798;2023-04-03T09:43:00;3.40;;;1.33;;
12687;SDS011;6408;59.388;17.798;2023-04-03T09:45:30;4.43;;;1.40;;
12687;SDS011;6408;59.388;17.798;2023-04-03T09:48:07;2.87;;;1.20;;
12687;SDS011;6408;59.388;17.798;2023-04-03T09:50:54;3.07;;;1.10;;
12687;SDS011;6408;59.388;17.798;2023-04-03T09:53:26;3.40;;;1.20;;
12687;SDS011;6408;59.388;17.798;2023-04-03T09:55:56;3.07;;;1.10;;
12687;SDS011;6408;59.388;17.798;2023-04-03T09:58:25;3.93;;;1.20;;
12687;SDS011;6408;59.388;17.798;2023-04-03T10:00:54;2.67;;;1.10;;
12687;SDS011;6408;59.388;17.798;2023-04-03T10:03:24;2.37;;;1.20;;
12687;SDS011;6408;59.388;17.798;2023-04-03T10:05:56;3.30;;;1.30;;
12687;SDS011;6408;59.388;17.798;2023-04-03T10:08:26;5.87;;;1.23;;
12687;SDS011;6408;59.388;17.798;2023-04-03T10:11:05;2.83;;;1.00;;
12687;SDS011;6408;59.388;17.798;2023-04-03T10:13:35;5.80;;;1.43;;
12687;SDS011;6408;59.388;17.798;2023-04-03T10:16:17;6.70;;;1.23;;
12687;SDS011;6408;59.388;17.798;2023-04-03T10:18:48;4.97;;;1.07;;
12687;SDS011;6408;59.388;17.798;2023-04-03T10:21:29;7.63;;;1.30;;
12687;SDS011;6408;59.388;17.798;2023-04-03T10:24:06;5.93;;;1.40;;
12687;SDS011;6408;59.388;17.798;2023-04-03T10:26:41;4.10;;;1.10;;
12687;SDS011;6408;59.388;17.798;2023-04-03T10:29:19;2.53;;;0.80;;
12687;SDS011;6408;59.388;17.798;2023-04-03T10:32:06;4.70;;;1.17;;
12687;SDS011;6408;59.388;17.798;2023-04-03T10:34:43;1.80;;;0.87;;
12687;SDS011;6408;59.388;17.798;2023-04-03T10:37:17;3.43;;;1.20;;
12687;SDS011;6408;59.388;17.798;2023-04-03T10:39:51;4.03;;;1.03;;
12687;SDS011;6408;59.388;17.798;2023-04-03T10:42:25;1.07;;;0.93;;
12687;SDS011;6408;59.388;17.798;2023-04-03T10:45:06;3.07;;;1.00;;
12687;SDS011;6408;59.388;17.798;2023-04-03T10:47:45;4.83;;;1.23;;
12687;SDS011;6408;59.388;17.798;2023-04-03T10:50:24;1.53;;;1.03;;
12687;SDS011;6408;59.388;17.798;2023-04-03T10:53:00;4.03;;;1.00;;
12687;SDS011;6408;59.388;17.798;2023-04-03T10:55:34;8.03;;;1.63;;
12687;SDS011;6408;59.388;17.798;2023-04-03T10:58:06;3.40;;;1.27;;
12687;SDS011;6408;59.388;17.798;2023-04-03T11:00:44;2.03;;;0.83;;
12687;SDS011;6408;59.388;17.798;2023-04-03T11:03:16;1.83;;;0.90;;
12687;SDS011;6408;59.388;17.798;2023-04-03T11:05:54;3.37;;;0.90;;
12687;SDS011;6408;59.388;17.798;2023-04-03T11:08:26;3.07;;;1.00;;
12687;SDS011;6408;59.388;17.798;2023-04-03T11:11:00;3.23;;;0.90;;
12687;SDS011;6408;59.388;17.798;2023-04-03T11:13:33;3.97;;;1.07;;
12687;SDS011;6408;59.388;17.798;2023-04-03T11:16:05;5.57;;;0.97;;
12687;SDS011;6408;59.388;17.798;2023-04-03T11:18:35;2.30;;;0.77;;
12687;SDS011;6408;59.388;17.798;2023-04-03T11:21:07;6.73;;;1.00;;
12687;SDS011;6408;59.388;17.798;2023-04-03T11:23:41;2.00;;;0.80;;
12687;SDS011;6408;59.388;17.798;2023-04-03T11:26:11;1.33;;;0.70;;
12687;SDS011;6408;59.388;17.798;2023-04-03T11:28:40;1.57;;;0.83;;
12687;SDS011;6408;59.388;17.798;2023-04-03T11:31:12;2.47;;;1.07;;
12687;SDS011;6408;59.388;17.798;2023-04-03T11:33:52;1.20;;;0.77;;
12687;SDS011;6408;59.388;17.798;2023-04-03T11:36:31;1.63;;;0.93;;
12687;SDS011;6408;59.388;17.798;2023-04-03T11:39:10;1.47;;;0.77;;
12687;SDS011;6408;59.388;17.798;2023-04-03T11:41:47;2.70;;;1.00;;
12687;SDS011;6408;59.388;17.798;2023-04-03T11:44:29;1.77;;;1.00;;
12687;SDS011;6408;59.388;17.798;2023-04-03T11:47:01;1.77;;;0.83;;
12687;SDS011;6408;59.388;17.798;2023-04-03T11:58:40;2.87;;;1.07;;
12687;SDS011;6408;59.388;17.798;2023-04-03T12:01:49;1.23;;;0.73;;
12687;SDS011;6408;59.388;17.798;2023-04-03T12:04:18;3.63;;;1.17;;
12687;SDS011;6408;59.388;17.798;2023-04-03T12:12:30;3.37;;;1.17;;
12687;SDS011;6408;59.388;17.798;2023-04-03T12:18:37;1.23;;;0.90;;
12687;SDS011;6408;59.388;17.798;2023-04-03T12:21:11;2.93;;;0.90;;
12687;SDS011;6408;59.388;17.798;2023-04-03T12:23:57;1.90;;;1.03;;
12687;SDS011;6408;59.388;17.798;2023-04-03T12:26:28;5.17;;;1.33;;
12687;SDS011;6408;59.388;17.798;2023-04-03T12:29:01;2.43;;;1.13;;
12687;SDS011;6408;59.388;17.798;2023-04-03T12:31:37;2.73;;;0.90;;
12687;SDS011;6408;59.388;17.798;2023-04-03T12:34:30;1.77;;;0.90;;
12687;SDS011;6408;59.388;17.798;2023-04-03T12:37:16;3.50;;;0.90;;
12687;SDS011;6408;59.388;17.798;2023-04-03T12:39:55;1.93;;;0.90;;
12687;SDS011;6408;59.388;17.798;2023-04-03T12:42:42;2.70;;;1.00;;
12687;SDS011;6408;59.388;17.798;2023-04-03T12:45:38;1.40;;;0.70;;
12687;SDS011;6408;59.388;17.798;2023-04-03T12:48:11;2.17;;;0.70;;
12687;SDS011;6408;59.388;17.798;2023-04-03T12:50:43;2.27;;;0.80;;
12687;SDS011;6408;59.388;17.798;2023-04-03T12:53:15;1.53;;;0.90;;
12687;SDS011;6408;59.388;17.798;2023-04-03T12:55:46;6.33;;;1.20;;
12687;SDS011;6408;59.388;17.798;2023-04-03T12:58:15;3.50;;;0.90;;
12687;SDS011;6408;59.388;17.798;2023-04-03T13:00:43;2.10;;;0.70;;
12687;SDS011;6408;59.388;17.798;2023-04-03T13:03:21;2.63;;;1.00;;
12687;SDS011;6408;59.388;17.798;2023-04-03T13:05:53;4.00;;;1.03;;
12687;SDS011;6408;59.388;17.798;2023-04-03T13:08:24;1.80;;;1.10;;
12687;SDS011;6408;59.388;17.798;2023-04-03T13:10:53;3.63;;;0.90;;
12687;SDS011;6408;59.388;17.798;2023-04-03T13:13:23;3.70;;;0.87;;
12687;SDS011;6408;59.388;17.798;2023-04-03T13:15:51;2.77;;;1.20;;
12687;SDS011;6408;59.388;17.798;2023-04-03T13:18:21;4.30;;;1.30;;
12687;SDS011;6408;59.388;17.798;2023-04-03T13:20:50;1.10;;;0.87;;
12687;SDS011;6408;59.388;17.798;2023-04-03T13:23:21;1.63;;;0.97;;
12687;SDS011;6408;59.388;17.798;2023-04-03T13:25:48;2.70;;;1.10;;
12687;SDS011;6408;59.388;17.798;2023-04-03T13:28:18;2.50;;;1.13;;
12687;SDS011;6408;59.388;17.798;2023-04-03T13:30:55;2.60;;;1.03;;
12687;SDS011;6408;59.388;17.798;2023-04-03T13:33:27;4.33;;;1.20;;
12687;SDS011;6408;59.388;17.798;2023-04-03T13:36:00;1.93;;;1.00;;
12687;SDS011;6408;59.388;17.798;2023-04-03T13:38:33;2.27;;;1.00;;
12687;SDS011;6408;59.388;17.798;2023-04-03T13:41:02;2.33;;;1.23;;
12687;SDS011;6408;59.388;17.798;2023-04-03T13:43:35;4.47;;;1.10;;
12687;SDS011;6408;59.388;17.798;2023-04-03T13:46:05;4.10;;;1.30;;
12687;SDS011;6408;59.388;17.798;2023-04-03T13:48:51;5.67;;;1.00;;
12687;SDS011;6408;59.388;17.798;2023-04-03T13:51:21;3.13;;;1.30;;
12687;SDS011;6408;59.388;17.798;2023-04-03T13:53:53;1.13;;;0.77;;
12687;SDS011;6408;59.388;17.798;2023-04-03T13:56:32;1.80;;;0.80;;
12687;SDS011;6408;59.388;17.798;2023-04-03T13:59:05;2.53;;;0.90;;
12687;SDS011;6408;59.388;17.798;2023-04-03T14:01:48;3.30;;;0.60;;
12687;SDS011;6408;59.388;17.798;2023-04-03T14:04:19;2.80;;;0.90;;
12687;SDS011;6408;59.388;17.798;2023-04-03T14:06:49;2.63;;;0.70;;
12687;SDS011;6408;59.388;17.798;2023-04-03T14:09:18;1.50;;;0.83;;
12687;SDS011;6408;59.388;17.798;2023-04-03T14:11:49;3.03;;;1.00;;
12687;SDS011;6408;59.388;17.798;2023-04-03T14:14:19;2.10;;;0.70;;
12687;SDS011;6408;59.388;17.798;2023-04-03T14:16:50;3.43;;;1.10;;
12687;SDS011;6408;59.388;17.798;2023-04-03T14:19:22;1.53;;;0.80;;
12687;SDS011;6408;59.388;17.798;2023-04-03T14:21:52;1.70;;;0.90;;
12687;SDS011;6408;59.388;17.798;2023-04-03T14:24:23;1.93;;;0.90;;
12687;SDS011;6408;59.388;17.798;2023-04-03T14:26:53;2.73;;;1.00;;
12687;SDS011;6408;59.388;17.798;2023-04-03T14:29:22;1.63;;;0.60;;
12687;SDS011;6408;59.388;17.798;2023-04-03T14:31:50;1.50;;;0.80;;
12687;SDS011;6408;59.388;17.798;2023-04-03T14:34:18;2.40;;;0.87;;
12687;SDS011;6408;59.388;17.798;2023-04-03T14:36:46;3.07;;;1.00;;
12687;SDS011;6408;59.388;17.798;2023-04-03T14:39:15;1.73;;;0.70;;
12687;SDS011;6408;59.388;17.798;2023-04-03T14:41:46;1.63;;;0.83;;
12687;SDS011;6408;59.388;17.798;2023-04-03T14:44:14;1.80;;;0.97;;
12687;SDS011;6408;59.388;17.798;2023-04-03T14:46:42;2.20;;;1.00;;
12687;SDS011;6408;59.388;17.798;2023-04-03T14:49:12;1.07;;;0.60;;
12687;SDS011;6408;59.388;17.798;2023-04-03T14:51:42;1.73;;;0.63;;
12687;SDS011;6408;59.388;17.798;2023-04-03T14:54:11;2.20;;;0.87;;
12687;SDS011;6408;59.388;17.798;2023-04-03T14:56:41;2.47;;;0.63;;
12687;SDS011;6408;59.388;17.798;2023-04-03T14:59:11;1.90;;;0.80;;
12687;SDS011;6408;59.388;17.798;2023-04-03T15:01:42;0.60;;;0.60;;
12687;SDS011;6408;59.388;17.798;2023-04-03T15:04:10;1.57;;;0.80;;
12687;SDS011;6408;59.388;17.798;2023-04-03T15:06:40;1.63;;;0.70;;
12687;SDS011;6408;59.388;17.798;2023-04-03T15:09:11;2.93;;;0.70;;
12687;SDS011;6408;59.388;17.798;2023-04-03T15:11:46;2.83;;;0.80;;
12687;SDS011;6408;59.388;17.798;2023-04-03T15:14:16;2.07;;;0.70;;
12687;SDS011;6408;59.388;17.798;2023-04-03T15:16:44;1.97;;;1.27;;
12687;SDS011;6408;59.388;17.798;2023-04-03T15:19:12;2.63;;;1.07;;
12687;SDS011;6408;59.388;17.798;2023-04-03T15:21:40;1.57;;;0.70;;
12687;SDS011;6408;59.388;17.798;2023-04-03T15:24:08;1.80;;;0.70;;
12687;SDS011;6408;59.388;17.798;2023-04-03T15:26:36;2.23;;;0.70;;
12687;SDS011;6408;59.388;17.798;2023-04-03T15:29:04;3.00;;;1.00;;
12687;SDS011;6408;59.388;17.798;2023-04-03T15:31:34;2.87;;;0.70;;
12687;SDS011;6408;59.388;17.798;2023-04-03T15:34:02;2.30;;;0.63;;
12687;SDS011;6408;59.388;17.798;2023-04-03T15:36:30;2.93;;;0.77;;
12687;SDS011;6408;59.388;17.798;2023-04-03T15:38:58;2.63;;;0.90;;
12687;SDS011;6408;59.388;17.798;2023-04-03T15:41:25;9.73;;;1.10;;
12687;SDS011;6408;59.388;17.798;2023-04-03T15:43:53;2.30;;;0.80;;
12687;SDS011;6408;59.388;17.798;2023-04-03T15:46:21;1.13;;;0.60;;
12687;SDS011;6408;59.388;17.798;2023-04-03T15:48:51;3.37;;;0.80;;
12687;SDS011;6408;59.388;17.798;2023-04-03T15:51:19;1.00;;;0.70;;
12687;SDS011;6408;59.388;17.798;2023-04-03T15:53:46;4.27;;;0.90;;
12687;SDS011;6408;59.388;17.798;2023-04-03T15:56:14;2.77;;;1.30;;
12687;SDS011;6408;59.388;17.798;2023-04-03T15:58:42;1.93;;;0.80;;
12687;SDS011;6408;59.388;17.798;2023-04-03T16:01:10;4.47;;;0.60;;
12687;SDS011;6408;59.388;17.798;2023-04-03T16:03:39;1.00;;;0.70;;
12687;SDS011;6408;59.388;17.798;2023-04-03T16:06:12;5.20;;;0.97;;
12687;SDS011;6408;59.388;17.798;2023-04-03T16:08:40;1.93;;;0.90;;
12687;SDS011;6408;59.388;17.798;2023-04-03T16:11:08;1.90;;;0.80;;
12687;SDS011;6408;59.388;17.798;2023-04-03T16:13:36;4.63;;;0.77;;
12687;SDS011;6408;59.388;17.798;2023-04-03T16:16:03;2.17;;;0.87;;
12687;SDS011;6408;59.388;17.798;2023-04-03T16:18:32;1.90;;;0.80;;
12687;SDS011;6408;59.388;17.798;2023-04-03T16:21:02;1.60;;;0.60;;
12687;SDS011;6408;59.388;17.798;2023-04-03T16:23:31;1.70;;;0.80;;
12687;SDS011;6408;59.388;17.798;2023-04-03T16:25:59;2.90;;;0.90;;
12687;SDS011;6408;59.388;17.798;2023-04-03T16:28:26;1.87;;;0.87;;
12687;SDS011;6408;59.388;17.798;2023-04-03T16:30:54;1.37;;;0.80;;
12687;SDS011;6408;59.388;17.798;2023-04-03T16:33:22;3.83;;;1.03;;
12687;SDS011;6408;59.388;17.798;2023-04-03T16:35:50;2.03;;;1.20;;
12687;SDS011;6408;59.388;17.798;2023-04-03T16:38:18;2.33;;;0.90;;
12687;SDS011;6408;59.388;17.798;2023-04-03T16:40:49;3.70;;;0.80;;
12687;SDS011;6408;59.388;17.798;2023-04-03T16:43:17;2.43;;;0.87;;
12687;SDS011;6408;59.388;17.798;2023-04-03T16:45:45;4.67;;;1.00;;
12687;SDS011;6408;59.388;17.798;2023-04-03T16:48:13;2.43;;;0.70;;
12687;SDS011;6408;59.388;17.798;2023-04-03T16:50:40;2.97;;;0.70;;
12687;SDS011;6408;59.388;17.798;2023-04-03T16:53:08;6.30;;;1.00;;
12687;SDS011;6408;59.388;17.798;2023-04-03T16:55:36;4.27;;;1.40;;
12687;SDS011;6408;59.388;17.798;2023-04-03T16:58:06;3.20;;;1.00;;
12687;SDS011;6408;59.388;17.798;2023-04-03T17:00:35;2.03;;;0.80;;
12687;SDS011;6408;59.388;17.798;2023-04-03T17:03:03;1.97;;;1.00;;
12687;SDS011;6408;59.388;17.798;2023-04-03T17:05:30;1.83;;;0.60;;
12687;SDS011;6408;59.388;17.798;2023-04-03T17:07:58;3.13;;;0.93;;
12687;SDS011;6408;59.388;17.798;2023-04-03T17:10:27;2.50;;;1.20;;
12687;SDS011;6408;59.388;17.798;2023-04-03T17:12:55;6.73;;;1.00;;
12687;SDS011;6408;59.388;17.798;2023-04-03T17:15:24;5.90;;;1.10;;
12687;SDS011;6408;59.388;17.798;2023-04-03T17:17:52;2.30;;;1.10;;
12687;SDS011;6408;59.388;17.798;2023-04-03T17:20:20;3.27;;;0.93;;
12687;SDS011;6408;59.388;17.798;2023-04-03T17:22:48;4.07;;;0.90;;
12687;SDS011;6408;59.388;17.798;2023-04-03T17:25:15;5.73;;;1.13;;
12687;SDS011;6408;59.388;17.798;2023-04-03T17:27:43;6.63;;;1.10;;
12687;SDS011;6408;59.388;17.798;2023-04-03T17:30:11;15.07;;;2.10;;
12687;SDS011;6408;59.388;17.798;2023-04-03T17:32:43;21.70;;;2.80;;
12687;SDS011;6408;59.388;17.798;2023-04-03T17:35:11;12.03;;;1.73;;
12687;SDS011;6408;59.388;17.798;2023-04-03T17:37:38;17.80;;;2.87;;
12687;SDS011;6408;59.388;17.798;2023-04-03T17:40:07;14.93;;;1.93;;
12687;SDS011;6408;59.388;17.798;2023-04-03T17:42:38;11.50;;;1.60;;
12687;SDS011;6408;59.388;17.798;2023-04-03T17:45:06;9.13;;;1.57;;
12687;SDS011;6408;59.388;17.798;2023-04-03T17:47:35;16.50;;;2.10;;
12687;SDS011;6408;59.388;17.798;2023-04-03T17:50:05;36.07;;;3.07;;
12687;SDS011;6408;59.388;17.798;2023-04-03T17:52:33;10.17;;;2.07;;
12687;SDS011;6408;59.388;17.798;2023-04-03T17:55:00;15.93;;;2.27;;
12687;SDS011;6408;59.388;17.798;2023-04-03T17:57:28;11.83;;;2.07;;
12687;SDS011;6408;59.388;17.798;2023-04-03T17:59:56;14.83;;;1.90;;
12687;SDS011;6408;59.388;17.798;2023-04-03T18:02:24;7.87;;;1.70;;
12687;SDS011;6408;59.388;17.798;2023-04-03T18:04:52;7.80;;;1.70;;
12687;SDS011;6408;59.388;17.798;2023-04-03T18:07:21;7.53;;;2.03;;
12687;SDS011;6408;59.388;17.798;2023-04-03T18:09:49;7.80;;;1.63;;
12687;SDS011;6408;59.388;17.798;2023-04-03T18:12:18;7.07;;;1.80;;
12687;SDS011;6408;59.388;17.798;2023-04-03T18:14:45;7.77;;;1.60;;
12687;SDS011;6408;59.388;17.798;2023-04-03T18:17:13;21.43;;;2.83;;
12687;SDS011;6408;59.388;17.798;2023-04-03T18:19:41;6.77;;;1.80;;
12687;SDS011;6408;59.388;17.798;2023-04-03T18:22:11;3.17;;;1.43;;
12687;SDS011;6408;59.388;17.798;2023-04-03T18:24:43;7.53;;;1.50;;
12687;SDS011;6408;59.388;17.798;2023-04-03T18:27:12;18.10;;;3.50;;
12687;SDS011;6408;59.388;17.798;2023-04-03T18:29:41;13.17;;;2.10;;
12687;SDS011;6408;59.388;17.798;2023-04-03T18:32:11;9.47;;;1.93;;
12687;SDS011;6408;59.388;17.798;2023-04-03T18:34:40;7.80;;;2.10;;
12687;SDS011;6408;59.388;17.798;2023-04-03T18:37:08;10.90;;;2.83;;
12687;SDS011;6408;59.388;17.798;2023-04-03T18:39:35;8.17;;;2.10;;
12687;SDS011;6408;59.388;17.798;2023-04-03T18:42:05;9.20;;;1.60;;
12687;SDS011;6408;59.388;17.798;2023-04-03T18:44:36;8.57;;;2.03;;
12687;SDS011;6408;59.388;17.798;2023-04-03T18:47:04;11.43;;;1.87;;
12687;SDS011;6408;59.388;17.798;2023-04-03T18:49:35;9.53;;;2.40;;
12687;SDS011;6408;59.388;17.798;2023-04-03T18:52:05;17.83;;;2.13;;
12687;SDS011;6408;59.388;17.798;2023-04-03T18:54:34;13.80;;;2.30;;
12687;SDS011;6408;59.388;17.798;2023-04-03T18:57:03;15.03;;;2.50;;
12687;SDS011;6408;59.388;17.798;2023-04-03T18:59:32;19.93;;;2.93;;
12687;SDS011;6408;59.388;17.798;2023-04-03T19:01:59;18.73;;;2.00;;
12687;SDS011;6408;59.388;17.798;2023-04-03T19:04:28;16.87;;;3.67;;
12687;SDS011;6408;59.388;17.798;2023-04-03T19:06:56;8.50;;;2.80;;
12687;SDS011;6408;59.388;17.798;2023-04-03T19:09:27;9.40;;;2.00;;